createdAt,value
2022-10-08T00:02:18.265Z,12.13
2022-10-08T00:04:47.516Z,11.97
2022-10-08T00:07:17.881Z,12.10
2022-10-08T00:09:46.086Z,11.30
2022-10-08T00:12:17.107Z,11.70
2022-10-08T00:14:48.087Z,11.50
2022-10-08T00:17:16.690Z,11.63
2022-10-08T00:19:44.802Z,11.73
2022-10-08T00:22:13.559Z,11.17
2022-10-08T00:24:43.057Z,11.30
2022-10-08T00:27:16.726Z,11.70
2022-10-08T00:29:45.324Z,15.63
2022-10-08T00:32:14.635Z,13.83
2022-10-08T00:34:43.538Z,12.23
2022-10-08T00:37:15.237Z,11.33
2022-10-08T00:39:45.518Z,11.33
2022-10-08T00:42:14.755Z,10.63
2022-10-08T00:44:54.192Z,11.83
2022-10-08T00:47:39.755Z,11.23
2022-10-08T00:50:13.141Z,11.07
2022-10-08T00:52:45.647Z,11.60
2022-10-08T00:55:17.419Z,10.57
2022-10-08T00:57:46.225Z,10.77
2022-10-08T01:00:18.533Z,11.17
2022-10-08T01:02:48.093Z,11.47
2022-10-08T01:05:25.436Z,11.53
2022-10-08T01:08:02.222Z,11.00
2022-10-08T01:10:44.849Z,11.00
2022-10-08T01:13:26.963Z,11.10
2022-10-08T01:16:06.541Z,11.53
2022-10-08T01:18:44.545Z,10.93
2022-10-08T01:21:14.899Z,11.00
2022-10-08T01:24:18.714Z,15.20
2022-10-08T01:26:58.472Z,13.73
2022-10-08T01:29:34.208Z,11.33
2022-10-08T01:32:08.400Z,11.87
2022-10-08T01:34:46.541Z,11.07
2022-10-08T01:37:22.227Z,10.93
2022-10-08T01:39:54.459Z,11.83
2022-10-08T01:42:27.010Z,10.63
2022-10-08T01:45:01.219Z,10.73
2022-10-08T01:47:31.805Z,11.17
2022-10-08T01:50:06.754Z,10.83
2022-10-08T01:52:40.382Z,11.93
2022-10-08T01:55:16.152Z,12.00
2022-10-08T01:57:45.727Z,11.10
2022-10-08T02:00:21.171Z,11.10
2022-10-08T02:02:49.732Z,11.63
2022-10-08T02:05:18.151Z,11.27
2022-10-08T02:07:46.752Z,11.67
2022-10-08T02:10:17.627Z,10.97
2022-10-08T02:12:49.213Z,10.70
2022-10-08T02:15:22.834Z,10.80
2022-10-08T02:17:59.589Z,10.97
2022-10-08T02:20:38.542Z,10.60
2022-10-08T02:23:12.950Z,11.13
2022-10-08T02:25:49.711Z,10.27
2022-10-08T02:28:23.850Z,10.67
2022-10-08T02:30:57.947Z,11.07
2022-10-08T02:33:32.590Z,10.73
2022-10-08T02:36:03.734Z,10.50
2022-10-08T02:38:36.753Z,10.47
2022-10-08T02:41:10.678Z,10.60
2022-10-08T02:43:43.585Z,11.10
2022-10-08T02:46:18.445Z,10.53
2022-10-08T02:48:53.589Z,10.53
2022-10-08T02:51:22.048Z,10.70
2022-10-08T02:53:53.664Z,10.60
2022-10-08T02:56:27.640Z,11.07
2022-10-08T02:59:01.327Z,11.63
2022-10-08T03:01:42.687Z,11.30
2022-10-08T03:04:18.578Z,10.80
2022-10-08T03:06:51.854Z,10.70
2022-10-08T03:09:21.804Z,10.97
2022-10-08T03:11:50.771Z,10.87
2022-10-08T03:14:21.097Z,11.40
2022-10-08T03:16:55.173Z,10.50
2022-10-08T03:19:24.603Z,10.40
2022-10-08T03:21:56.963Z,10.40
2022-10-08T03:24:25.153Z,12.27
2022-10-08T03:26:54.798Z,11.67
2022-10-08T03:29:23.595Z,11.07
2022-10-08T03:31:53.799Z,11.13
2022-10-08T03:34:23.118Z,11.43
2022-10-08T03:36:54.895Z,11.17
2022-10-08T03:39:23.155Z,11.50
2022-10-08T03:41:51.883Z,11.97
2022-10-08T03:44:19.996Z,11.07
2022-10-08T03:46:48.767Z,11.77
2022-10-08T03:49:21.700Z,11.60
2022-10-08T03:51:50.249Z,12.20
2022-10-08T03:54:18.417Z,14.47
2022-10-08T03:56:47.862Z,12.27
2022-10-08T03:59:16.410Z,12.07
2022-10-08T04:01:49.241Z,14.63
2022-10-08T04:04:23.151Z,15.70
2022-10-08T04:06:57.160Z,15.67
2022-10-08T04:09:25.611Z,12.90
2022-10-08T04:11:54.594Z,11.70
2022-10-08T04:14:23.451Z,12.63
2022-10-08T04:16:51.813Z,12.10
2022-10-08T04:19:21.656Z,15.90
2022-10-08T04:21:55.313Z,25.60
2022-10-08T04:24:23.622Z,25.03
2022-10-08T04:26:51.837Z,31.30
2022-10-08T04:29:20.828Z,46.07
2022-10-08T04:31:49.010Z,47.73
2022-10-08T04:34:22.656Z,36.67
2022-10-08T04:36:50.890Z,24.40
2022-10-08T04:39:19.165Z,18.30
2022-10-08T04:41:47.397Z,16.10
2022-10-08T04:44:15.522Z,14.00
2022-10-08T04:46:43.931Z,12.10
2022-10-08T04:49:12.681Z,12.23
2022-10-08T04:51:45.918Z,12.23
2022-10-08T04:54:14.065Z,12.67
2022-10-08T04:56:42.871Z,13.13
2022-10-08T04:59:11.018Z,11.60
2022-10-08T05:01:39.912Z,12.50
2022-10-08T05:04:08.094Z,12.23
2022-10-08T05:06:38.430Z,12.40
2022-10-08T05:09:08.834Z,12.97
2022-10-08T05:11:37.247Z,12.23
2022-10-08T05:14:05.788Z,13.80
2022-10-08T05:16:37.391Z,13.30
2022-10-08T05:19:06.268Z,13.50
2022-10-08T05:21:34.727Z,13.03
2022-10-08T05:24:06.856Z,13.90
2022-10-08T05:26:58.377Z,14.13
2022-10-08T05:29:28.422Z,13.73
2022-10-08T05:31:57.579Z,12.93
2022-10-08T05:34:25.787Z,13.83
2022-10-08T05:36:57.699Z,14.57
2022-10-08T05:39:26.165Z,13.57
2022-10-08T05:41:55.851Z,13.33
2022-10-08T05:44:24.656Z,13.33
2022-10-08T05:46:59.929Z,13.07
2022-10-08T05:49:28.874Z,12.73
2022-10-08T05:51:57.510Z,13.47
2022-10-08T05:54:27.837Z,12.20
2022-10-08T05:56:58.870Z,12.57
2022-10-08T05:59:27.668Z,12.03
2022-10-08T06:01:55.992Z,11.47
2022-10-08T06:04:24.237Z,11.80
2022-10-08T06:06:52.568Z,12.13
2022-10-08T06:09:21.947Z,11.87
2022-10-08T06:11:54.368Z,12.37
2022-10-08T06:14:24.459Z,12.23
2022-10-08T06:16:52.655Z,11.20
2022-10-08T06:19:21.209Z,12.10
2022-10-08T06:21:50.192Z,12.10
2022-10-08T06:24:25.541Z,12.13
2022-10-08T06:26:53.744Z,11.13
2022-10-08T06:29:23.511Z,11.27
2022-10-08T06:31:51.713Z,11.33
2022-10-08T06:34:23.035Z,11.40
2022-10-08T06:36:51.280Z,11.50
2022-10-08T06:39:20.688Z,11.97
2022-10-08T06:41:48.965Z,11.53
2022-10-08T06:44:19.151Z,11.30
2022-10-08T06:46:50.637Z,11.37
2022-10-08T06:49:19.973Z,11.97
2022-10-08T06:51:48.903Z,11.37
2022-10-08T06:54:17.698Z,11.03
2022-10-08T06:56:45.998Z,11.13
2022-10-08T06:59:14.178Z,10.67
2022-10-08T07:01:46.770Z,12.00
2022-10-08T07:04:16.359Z,10.87
2022-10-08T07:06:44.973Z,11.00
2022-10-08T07:09:13.692Z,11.93
2022-10-08T07:11:41.888Z,11.73
2022-10-08T07:14:12.478Z,11.77
2022-10-08T07:16:40.745Z,10.73
2022-10-08T07:19:09.053Z,11.97
2022-10-08T07:21:38.666Z,11.83
2022-10-08T07:24:07.737Z,11.93
2022-10-08T07:26:36.605Z,11.40
2022-10-08T07:29:13.878Z,11.33
2022-10-08T07:31:42.467Z,12.03
2022-10-08T07:34:13.657Z,11.53
2022-10-08T07:36:43.891Z,11.67
2022-10-08T07:39:14.368Z,11.33
2022-10-08T07:41:43.249Z,12.23
2022-10-08T07:44:13.182Z,11.80
2022-10-08T07:46:46.319Z,11.60
2022-10-08T07:49:15.396Z,11.57
2022-10-08T07:51:45.900Z,12.67
2022-10-08T07:54:18.534Z,11.50
2022-10-08T07:56:47.553Z,11.60
2022-10-08T07:59:16.191Z,10.90
2022-10-08T08:01:45.051Z,10.87
2022-10-08T08:04:14.694Z,11.40
2022-10-08T08:06:47.589Z,11.00
2022-10-08T08:09:16.445Z,10.77
2022-10-08T08:11:46.101Z,11.17
2022-10-08T08:14:14.280Z,11.30
2022-10-08T08:16:42.615Z,11.10
2022-10-08T08:19:10.780Z,11.27
2022-10-08T08:21:42.641Z,11.33
2022-10-08T08:24:15.219Z,10.93
2022-10-08T08:26:44.280Z,11.43
2022-10-08T08:29:14.438Z,11.23
2022-10-08T08:31:44.489Z,11.63
2022-10-08T08:34:14.375Z,10.93
2022-10-08T08:36:46.070Z,10.83
2022-10-08T08:39:20.797Z,10.80
2022-10-08T08:42:10.912Z,10.87
2022-10-08T08:44:41.679Z,10.60
2022-10-08T08:47:22.424Z,10.60
2022-10-08T08:49:55.570Z,10.43
2022-10-08T08:52:30.432Z,10.77
2022-10-08T08:55:00.056Z,10.67
2022-10-08T08:57:38.588Z,10.10
2022-10-08T09:00:11.332Z,9.88
2022-10-08T09:02:46.816Z,10.43
2022-10-08T09:05:18.452Z,9.83
2022-10-08T09:07:54.495Z,9.75
2022-10-08T09:10:34.644Z,9.13
2022-10-08T09:13:03.449Z,10.07
2022-10-08T09:15:41.377Z,9.68
2022-10-08T09:18:14.488Z,9.32
2022-10-08T09:20:43.939Z,9.10
2022-10-08T09:23:18.747Z,8.60
2022-10-08T09:25:57.756Z,9.18
2022-10-08T09:28:41.471Z,8.88
2022-10-08T09:31:23.044Z,8.85
2022-10-08T09:34:02.069Z,8.38
2022-10-08T09:36:32.973Z,8.80
2022-10-08T09:39:04.356Z,11.05
2022-10-08T09:41:37.378Z,10.55
2022-10-08T09:44:18.354Z,8.48
2022-10-08T09:46:47.992Z,8.70
2022-10-08T09:49:32.257Z,9.10
2022-10-08T09:52:06.011Z,8.90
2022-10-08T09:54:37.399Z,8.85
2022-10-08T09:57:09.045Z,8.77
2022-10-08T09:59:42.589Z,9.05
2022-10-08T10:02:30.089Z,8.13
2022-10-08T10:04:59.815Z,8.52
2022-10-08T10:07:39.080Z,8.32
2022-10-08T10:10:18.862Z,8.60
2022-10-08T10:12:56.061Z,8.57
2022-10-08T10:15:29.821Z,8.52
2022-10-08T10:18:04.106Z,8.32
2022-10-08T10:20:36.817Z,8.05
2022-10-08T10:23:12.985Z,7.72
2022-10-08T10:25:48.015Z,7.90
2022-10-08T10:28:20.847Z,8.80
2022-10-08T10:30:54.939Z,8.60
2022-10-08T10:33:26.991Z,8.20
2022-10-08T10:36:00.468Z,8.27
2022-10-08T10:38:34.448Z,8.50
2022-10-08T10:41:13.164Z,8.15
2022-10-08T10:43:49.218Z,8.80
2022-10-08T10:46:27.944Z,8.32
2022-10-08T10:48:57.831Z,8.32
2022-10-08T10:51:42.093Z,8.57
2022-10-08T10:54:27.773Z,8.07
2022-10-08T10:57:02.280Z,8.20
2022-10-08T10:59:45.392Z,7.72
2022-10-08T11:02:29.105Z,8.30
2022-10-08T11:05:08.037Z,7.45
2022-10-08T11:08:13.062Z,7.85
2022-10-08T11:10:50.461Z,8.35
2022-10-08T11:13:37.823Z,9.13
2022-10-08T11:16:17.585Z,9.18
2022-10-08T11:18:53.217Z,8.13
2022-10-08T11:21:41.066Z,7.53
2022-10-08T11:24:27.643Z,7.93
2022-10-08T11:27:05.003Z,7.78
2022-10-08T11:29:40.009Z,7.82
2022-10-08T11:32:15.046Z,8.05
2022-10-08T11:34:50.040Z,7.35
2022-10-08T11:37:30.472Z,7.97
2022-10-08T11:40:05.252Z,9.23
2022-10-08T11:42:46.199Z,9.25
2022-10-08T11:45:35.139Z,8.50
2022-10-08T11:48:31.569Z,8.50
2022-10-08T11:51:40.190Z,8.60
2022-10-08T11:54:13.625Z,9.40
2022-10-08T11:56:46.136Z,8.70
2022-10-08T11:59:36.012Z,8.70
2022-10-08T12:02:09.297Z,9.38
2022-10-08T12:04:40.098Z,9.25
2022-10-08T12:07:22.220Z,9.27
2022-10-08T12:10:38.869Z,8.68
2022-10-08T12:13:26.680Z,9.25
2022-10-08T12:16:08.460Z,8.70
2022-10-08T12:18:46.210Z,9.43
2022-10-08T12:21:57.260Z,9.18
2022-10-08T12:24:56.337Z,9.15
2022-10-08T12:27:39.279Z,9.20
2022-10-08T12:30:11.086Z,8.82
2022-10-08T12:33:01.069Z,8.85
2022-10-08T12:35:32.791Z,9.07
2022-10-08T12:38:27.131Z,9.27
2022-10-08T12:41:07.040Z,8.50
2022-10-08T12:43:44.292Z,8.90
2022-10-08T12:46:27.220Z,9.48
2022-10-08T12:49:01.886Z,9.38
2022-10-08T12:52:01.246Z,8.82
2022-10-08T12:54:31.431Z,9.30
2022-10-08T12:57:02.071Z,8.50
2022-10-08T12:59:37.483Z,8.60
2022-10-08T13:02:06.253Z,9.18
2022-10-08T13:04:34.719Z,8.35
2022-10-08T13:07:21.077Z,8.98
2022-10-08T13:09:57.084Z,8.43
2022-10-08T13:12:25.910Z,8.10
2022-10-08T13:15:05.272Z,8.05
2022-10-08T13:17:36.090Z,8.15
2022-10-08T13:20:09.333Z,8.52
2022-10-08T13:22:37.851Z,8.50
2022-10-08T13:25:27.855Z,9.40
2022-10-08T13:28:14.444Z,8.80
2022-10-08T13:30:46.637Z,9.32
2022-10-08T13:33:21.324Z,8.60
2022-10-08T13:35:56.081Z,8.60
2022-10-08T13:38:30.346Z,9.07
2022-10-08T13:41:04.047Z,8.73
2022-10-08T13:43:37.202Z,9.57
2022-10-08T13:46:07.057Z,9.82
2022-10-08T13:48:36.094Z,9.32
2022-10-08T13:51:06.154Z,9.45
2022-10-08T13:53:34.384Z,8.95
2022-10-08T13:56:06.509Z,9.38
2022-10-08T13:58:35.138Z,9.57
2022-10-08T14:01:03.418Z,9.35
2022-10-08T14:03:34.117Z,9.25
2022-10-08T14:06:02.794Z,8.98
2022-10-08T14:08:36.100Z,8.43
2022-10-08T14:11:04.814Z,8.80
2022-10-08T14:13:33.126Z,9.40
2022-10-08T14:16:01.303Z,8.27
2022-10-08T14:18:33.314Z,10.60
2022-10-08T14:21:04.003Z,10.10
2022-10-08T14:23:33.120Z,8.27
2022-10-08T14:26:01.259Z,9.15
2022-10-08T14:28:29.665Z,8.35
2022-10-08T14:30:58.103Z,8.88
2022-10-08T14:33:30.499Z,9.27
2022-10-08T14:35:58.723Z,9.68
2022-10-08T14:38:32.692Z,9.32
2022-10-08T14:41:01.434Z,9.25
2022-10-08T14:43:30.459Z,9.00
2022-10-08T14:46:00.003Z,9.20
2022-10-08T14:48:29.176Z,9.63
2022-10-08T14:50:58.972Z,9.55
2022-10-08T14:53:28.855Z,9.75
2022-10-08T14:56:11.682Z,9.43
2022-10-08T14:58:40.509Z,10.13
2022-10-08T15:01:08.646Z,8.95
2022-10-08T15:03:36.811Z,9.35
2022-10-08T15:06:05.258Z,9.40
2022-10-08T15:08:36.136Z,8.98
2022-10-08T15:11:04.881Z,9.85
2022-10-08T15:13:35.219Z,9.77
2022-10-08T15:16:03.761Z,8.60
2022-10-08T15:18:33.178Z,9.02
2022-10-08T15:21:01.953Z,9.00
2022-10-08T15:23:31.541Z,8.93
2022-10-08T15:26:02.714Z,8.55
2022-10-08T15:28:33.003Z,9.30
2022-10-08T15:31:09.402Z,9.07
2022-10-08T15:33:39.667Z,9.43
2022-10-08T15:36:18.844Z,8.90
2022-10-08T15:38:47.525Z,9.50
2022-10-08T15:41:18.286Z,8.65
2022-10-08T15:43:46.890Z,9.20
2022-10-08T15:46:18.348Z,8.68
2022-10-08T15:48:52.925Z,9.48
2022-10-08T15:51:21.975Z,9.10
2022-10-08T15:53:50.666Z,9.00
2022-10-08T15:56:22.446Z,9.00
2022-10-08T15:58:51.549Z,8.57
2022-10-08T16:01:22.100Z,8.13
2022-10-08T16:03:52.331Z,9.95
2022-10-08T16:06:22.134Z,9.63
2022-10-08T16:08:51.262Z,9.73
2022-10-08T16:11:23.020Z,10.80
2022-10-08T16:13:53.408Z,10.73
2022-10-08T16:16:24.374Z,12.00
2022-10-08T16:19:01.458Z,11.88
2022-10-08T16:21:34.114Z,12.65
2022-10-08T16:24:03.176Z,14.05
2022-10-08T16:26:35.525Z,14.73
2022-10-08T16:29:06.279Z,15.43
2022-10-08T16:31:36.290Z,15.77
2022-10-08T16:34:06.904Z,16.67
2022-10-08T16:36:37.559Z,16.00
2022-10-08T16:39:09.547Z,16.73
2022-10-08T16:41:39.409Z,15.20
2022-10-08T16:44:12.351Z,15.05
2022-10-08T16:46:45.356Z,15.43
2022-10-08T16:49:22.723Z,15.77
2022-10-08T16:51:53.101Z,15.13
2022-10-08T16:54:21.424Z,15.13
2022-10-08T16:56:51.174Z,15.07
2022-10-08T16:59:21.086Z,15.73
2022-10-08T17:01:54.707Z,16.33
2022-10-08T17:04:25.080Z,16.20
2022-10-08T17:06:54.228Z,16.90
2022-10-08T17:09:26.150Z,30.27
2022-10-08T17:11:55.730Z,17.00
2022-10-08T17:14:23.915Z,16.57
2022-10-08T17:16:52.248Z,16.87
2022-10-08T17:19:20.739Z,15.43
2022-10-08T17:21:48.905Z,15.83
2022-10-08T17:24:17.094Z,15.17
2022-10-08T17:26:50.297Z,16.13
2022-10-08T17:29:19.808Z,16.10
2022-10-08T17:31:48.299Z,17.13
2022-10-08T17:34:16.575Z,16.90
2022-10-08T17:36:44.816Z,17.17
2022-10-08T17:39:16.909Z,18.60
2022-10-08T17:41:45.260Z,18.73
2022-10-08T17:44:13.839Z,18.40
2022-10-08T17:46:46.021Z,18.33
2022-10-08T17:49:17.478Z,19.80
2022-10-08T17:51:46.755Z,19.70
2022-10-08T17:54:16.970Z,19.93
2022-10-08T17:56:45.133Z,21.93
2022-10-08T17:59:15.011Z,21.30
2022-10-08T18:01:47.329Z,20.83
2022-10-08T18:04:17.763Z,22.47
2022-10-08T18:06:47.621Z,22.80
2022-10-08T18:09:18.526Z,23.73
2022-10-08T18:11:49.332Z,24.37
2022-10-08T18:14:17.502Z,25.10
2022-10-08T18:16:48.657Z,24.10
2022-10-08T18:19:22.542Z,21.90
2022-10-08T18:21:51.229Z,20.43
2022-10-08T18:24:19.963Z,20.87
2022-10-08T18:26:48.283Z,20.63
2022-10-08T18:29:16.747Z,19.90
2022-10-08T18:31:47.569Z,22.07
2022-10-08T18:34:17.893Z,19.63
2022-10-08T18:36:47.305Z,18.87
2022-10-08T18:39:18.295Z,19.10
2022-10-08T18:41:50.469Z,17.03
2022-10-08T18:44:20.983Z,16.10
2022-10-08T18:46:52.335Z,15.37
2022-10-08T18:49:23.872Z,15.70
2022-10-08T18:51:53.317Z,15.20
2022-10-08T18:54:21.401Z,15.17
2022-10-08T18:56:50.350Z,15.53
2022-10-08T18:59:19.102Z,15.97
2022-10-08T19:01:50.311Z,15.43
2022-10-08T19:04:20.302Z,16.10
2022-10-08T19:06:50.361Z,16.63
2022-10-08T19:09:19.293Z,15.77
2022-10-08T19:11:49.876Z,15.83
2022-10-08T19:14:20.170Z,16.03
2022-10-08T19:16:52.036Z,15.97
2022-10-08T19:19:22.305Z,15.30
2022-10-08T19:21:52.116Z,15.80
2022-10-08T19:24:23.719Z,15.13
2022-10-08T19:26:54.188Z,15.33
2022-10-08T19:29:23.951Z,15.27
2022-10-08T19:31:54.652Z,15.43
2022-10-08T19:34:24.728Z,15.47
2022-10-08T19:36:54.378Z,14.80
2022-10-08T19:39:25.112Z,14.43
2022-10-08T19:41:53.803Z,15.23
2022-10-08T19:44:22.436Z,13.53
2022-10-08T19:46:50.965Z,14.10
2022-10-08T19:49:22.124Z,13.57
2022-10-08T19:51:51.336Z,14.67
2022-10-08T19:54:19.464Z,14.87
2022-10-08T19:56:49.416Z,14.23
2022-10-08T19:59:18.135Z,14.50
2022-10-08T20:01:50.315Z,13.87
2022-10-08T20:04:21.724Z,13.60
2022-10-08T20:06:50.354Z,13.13
2022-10-08T20:09:18.714Z,12.27
2022-10-08T20:11:51.334Z,12.50
2022-10-08T20:14:19.513Z,13.20
2022-10-08T20:16:48.381Z,12.20
2022-10-08T20:19:19.529Z,12.40
2022-10-08T20:21:52.713Z,11.67
2022-10-08T20:24:21.295Z,12.10
2022-10-08T20:26:50.331Z,11.47
2022-10-08T20:29:20.726Z,10.73
2022-10-08T20:31:55.149Z,11.30
2022-10-08T20:34:26.990Z,10.63
2022-10-08T20:37:00.766Z,10.87
2022-10-08T20:39:29.058Z,10.93
2022-10-08T20:41:58.415Z,11.30
2022-10-08T20:44:26.953Z,10.77
2022-10-08T20:46:55.502Z,10.67
2022-10-08T20:49:23.668Z,11.13
2022-10-08T20:51:55.364Z,11.40
2022-10-08T20:54:25.494Z,11.47
2022-10-08T20:56:54.356Z,10.73
2022-10-08T20:59:23.182Z,12.00
2022-10-08T21:01:52.575Z,11.67
2022-10-08T21:04:23.521Z,11.73
2022-10-08T21:06:53.380Z,11.50
2022-10-08T21:09:22.564Z,11.70
2022-10-08T21:11:55.224Z,11.50
2022-10-08T21:14:23.933Z,11.77
2022-10-08T21:16:54.276Z,10.40
2022-10-08T21:19:23.384Z,11.30
2022-10-08T21:21:52.719Z,11.23
2022-10-08T21:24:21.004Z,11.00
2022-10-08T21:26:53.043Z,10.97
2022-10-08T21:29:22.737Z,10.47
2022-10-08T21:31:51.380Z,10.37
2022-10-08T21:34:19.726Z,11.40
2022-10-08T21:36:48.384Z,10.40
2022-10-08T21:39:18.341Z,10.27
2022-10-08T21:41:48.782Z,10.63
2022-10-08T21:44:16.986Z,10.60
2022-10-08T21:46:47.388Z,9.80
2022-10-08T21:49:20.086Z,9.80
2022-10-08T21:51:50.158Z,10.17
2022-10-08T21:54:18.983Z,9.93
2022-10-08T21:56:47.363Z,10.83
2022-10-08T21:59:17.225Z,9.80
2022-10-08T22:01:49.411Z,10.43
2022-10-08T22:04:20.408Z,9.60
2022-10-08T22:06:51.419Z,9.93
2022-10-08T22:09:25.054Z,9.53
2022-10-08T22:11:55.397Z,9.10
2022-10-08T22:14:24.411Z,8.63
2022-10-08T22:16:54.392Z,8.63
2022-10-08T22:19:23.416Z,9.10
2022-10-08T22:21:55.455Z,8.90
2022-10-08T22:24:23.705Z,9.00
2022-10-08T22:26:52.055Z,9.07
2022-10-08T22:29:20.186Z,8.40
2022-10-08T22:31:49.450Z,7.40
2022-10-08T22:34:18.969Z,6.90
2022-10-08T22:36:49.841Z,6.53
2022-10-08T22:39:18.037Z,6.43
2022-10-08T22:41:46.523Z,6.00
2022-10-08T22:44:14.724Z,5.60
2022-10-08T22:46:43.015Z,6.33
2022-10-08T22:49:13.422Z,5.63
2022-10-08T22:51:45.994Z,5.33
2022-10-08T22:54:14.372Z,5.20
2022-10-08T22:56:43.422Z,4.80
2022-10-08T22:59:11.647Z,5.50
2022-10-08T23:01:40.032Z,5.20
2022-10-08T23:04:09.100Z,5.33
2022-10-08T23:06:39.514Z,4.70
2022-10-08T23:09:13.230Z,5.47
2022-10-08T23:11:46.100Z,6.40
2022-10-08T23:14:14.971Z,5.70
2022-10-08T23:16:43.287Z,5.60
2022-10-08T23:19:13.418Z,6.00
2022-10-08T23:21:44.370Z,6.40
2022-10-08T23:24:15.429Z,5.67
2022-10-08T23:26:45.223Z,5.63
2022-10-08T23:29:14.097Z,5.57
2022-10-08T23:31:42.507Z,4.50
2022-10-08T23:34:10.874Z,5.33
2022-10-08T23:36:43.172Z,4.93
2022-10-08T23:39:16.545Z,5.37
2022-10-08T23:41:45.428Z,5.10
2022-10-08T23:44:14.573Z,5.53
2022-10-08T23:46:42.689Z,5.90
2022-10-08T23:49:11.421Z,6.20
2022-10-08T23:51:40.986Z,5.50
2022-10-08T23:54:10.257Z,5.70
2022-10-08T23:56:40.416Z,5.97
2022-10-08T23:59:09.639Z,5.60
